Wetterdaten: Donnerstag, 14.01.2016
Datum Zeit Auen-Temp. Temp gefhlt Luftfeuchte Luftdruck Regen Wind Richtung Richtung Taupunkt Windben
14.01.2016 00:00 -0,3 C -0,8 C 59 % 1017,8 hPa 0,0 mm 6,0 km/h (2 Bft) SW 225 -7,3 C 3,1 km/h (1 Bft)
14.01.2016 00:05 -0,4 C -1,0 C 59 % 1017,8 hPa 0,0 mm 6,2 km/h (2 Bft) SW 225 -7,4 C 7,5 km/h (2 Bft)
14.01.2016 00:10 -0,3 C -0,9 C 59 % 1017,8 hPa 0,0 mm 6,5 km/h (2 Bft) W-SW 247 -7,3 C 15,5 km/h (3 Bft)
14.01.2016 00:15 -0,2 C -1,0 C 59 % 1017,8 hPa 0,0 mm 8,3 km/h (2 Bft) W 270 -7,2 C 4,9 km/h (1 Bft)
14.01.2016 00:20 -0,1 C -1,0 C 59 % 1017,5 hPa 0,0 mm 9,1 km/h (2 Bft) W-SW 247 -7,1 C 17,1 km/h (3 Bft)
14.01.2016 00:25 -0,1 C -1,0 C 59 % 1017,5 hPa 0,0 mm 8,8 km/h (2 Bft) W 270 -7,1 C 17,9 km/h (3 Bft)
14.01.2016 00:30 -0,2 C -1,0 C 59 % 1017,5 hPa 0,0 mm 8,5 km/h (2 Bft) W-SW 247 -7,2 C 8,8 km/h (2 Bft)
14.01.2016 00:35 -0,2 C -0,7 C 60 % 1017,5 hPa 0,0 mm 5,7 km/h (1 Bft) SO 135 -7,0 C 4,1 km/h (1 Bft)
14.01.2016 00:40 -0,2 C -0,7 C 60 % 1017,3 hPa 0,0 mm 5,4 km/h (1 Bft) W 270 -7,0 C 8,8 km/h (2 Bft)
14.01.2016 00:45 -0,2 C -0,7 C 59 % 1017,3 hPa 0,0 mm 6,2 km/h (2 Bft) SW 225 -7,2 C 7,0 km/h (2 Bft)
14.01.2016 00:50 -0,1 C -0,8 C 59 % 1017,3 hPa 0,0 mm 6,5 km/h (2 Bft) SW 225 -7,1 C 10,9 km/h (2 Bft)
14.01.2016 00:55 -0,1 C -0,7 C 59 % 1017,3 hPa 0,0 mm 6,5 km/h (2 Bft) W-SW 247 -7,1 C 7,0 km/h (2 Bft)
14.01.2016 01:00 -0,1 C -0,8 C 59 % 1017,2 hPa 0,0 mm 7,5 km/h (2 Bft) SW 225 -7,1 C 13,5 km/h (3 Bft)
14.01.2016 01:05 -0,2 C -0,9 C 59 % 1017,2 hPa 0,0 mm 7,8 km/h (2 Bft) W-SW 247 -7,2 C 13,5 km/h (3 Bft)
14.01.2016 01:10 -0,2 C -1,0 C 59 % 1017,2 hPa 0,0 mm 8,0 km/h (2 Bft) W-SW 247 -7,2 C 7,5 km/h (2 Bft)
14.01.2016 01:15 -0,2 C -1,0 C 59 % 1017,2 hPa 0,0 mm 8,0 km/h (2 Bft) SW 225 -7,2 C 11,9 km/h (2 Bft)
14.01.2016 01:20 -0,1 C -0,9 C 59 % 1017,0 hPa 0,0 mm 7,5 km/h (2 Bft) W-NW 292 -7,1 C 5,4 km/h (1 Bft)
14.01.2016 01:25 -0,1 C -1,0 C 59 % 1017,0 hPa 0,0 mm 8,5 km/h (2 Bft) SW 225 -7,1 C 10,4 km/h (2 Bft)
14.01.2016 01:30 -0,2 C -1,0 C 59 % 1017,0 hPa 0,0 mm 8,5 km/h (2 Bft) W-SW 247 -7,2 C 12,4 km/h (3 Bft)
14.01.2016 01:35 -0,3 C -1,2 C 59 % 1017,0 hPa 0,0 mm 8,5 km/h (2 Bft) W-SW 247 -7,3 C 9,6 km/h (2 Bft)
14.01.2016 01:40 -0,5 C -1,4 C 59 % 1017,0 hPa 0,0 mm 8,8 km/h (2 Bft) SW 225 -7,5 C 8,3 km/h (2 Bft)
14.01.2016 01:45 -0,6 C -1,6 C 59 % 1017,0 hPa 0,0 mm 9,3 km/h (2 Bft) W-SW 247 -7,6 C 20,2 km/h (4 Bft)
14.01.2016 01:50 -0,6 C -1,7 C 59 % 1017,0 hPa 0,0 mm 9,6 km/h (2 Bft) SW 225 -7,6 C 6,0 km/h (2 Bft)
14.01.2016 01:55 -0,8 C -1,9 C 59 % 1017,0 hPa 0,0 mm 9,6 km/h (2 Bft) W-SW 247 -7,8 C 18,4 km/h (3 Bft)
14.01.2016 02:00 -0,8 C -2,0 C 59 % 1016,8 hPa 0,0 mm 10,1 km/h (2 Bft) W-SW 247 -7,8 C 12,7 km/h (3 Bft)
14.01.2016 02:05 -1,1 C -2,1 C 59 % 1016,8 hPa 0,0 mm 8,3 km/h (2 Bft) W-SW 247 -8,1 C 5,4 km/h (1 Bft)
14.01.2016 02:10 -1,1 C -2,1 C 59 % 1016,8 hPa 0,0 mm 7,3 km/h (2 Bft) S 180 -8,1 C 9,8 km/h (2 Bft)
14.01.2016 02:15 -1,3 C -2,2 C 59 % 1016,8 hPa 0,0 mm 6,7 km/h (2 Bft) W-SW 247 -8,3 C 6,2 km/h (2 Bft)
14.01.2016 02:20 -1,5 C -2,3 C 59 % 1016,6 hPa 0,0 mm 6,0 km/h (2 Bft) W 270 -8,4 C 4,7 km/h (1 Bft)
14.01.2016 02:25 -1,7 C -2,4 C 59 % 1016,6 hPa 0,0 mm 4,7 km/h (1 Bft) W-SW 247 -8,6 C 5,4 km/h (1 Bft)
14.01.2016 02:30 -1,7 C -2,4 C 59 % 1016,6 hPa 0,0 mm 5,2 km/h (1 Bft) SW 225 -8,6 C 7,5 km/h (2 Bft)
14.01.2016 02:35 -1,7 C -2,5 C 60 % 1016,6 hPa 0,0 mm 5,4 km/h (1 Bft) W-SW 247 -8,4 C 4,1 km/h (1 Bft)
14.01.2016 02:40 -1,9 C -2,5 C 60 % 1016,8 hPa 0,0 mm 4,1 km/h (1 Bft) S-SW 202 -8,6 C 4,9 km/h (1 Bft)
14.01.2016 02:45 -2,0 C -2,5 C 61 % 1016,8 hPa 0,0 mm 2,6 km/h (1 Bft) S 180 -8,5 C 2,6 km/h (1 Bft)
14.01.2016 02:50 -2,3 C -2,8 C 61 % 1016,8 hPa 0,0 mm 2,3 km/h (1 Bft) S 180 -8,8 C 0,0 km/h (0 Bft)
14.01.2016 02:55 -2,6 C -3,1 C 62 % 1016,8 hPa 0,0 mm 0,8 km/h (0 Bft) SO 135 -8,9 C 0,0 km/h (0 Bft)
14.01.2016 03:00 -2,8 C -3,4 C 63 % 1016,7 hPa 0,0 mm 0,5 km/h (0 Bft) SW 225 -8,8 C 0,0 km/h (0 Bft)
14.01.2016 03:05 -2,8 C -3,4 C 64 % 1016,7 hPa 0,0 mm 1,0 km/h (0 Bft) S-SO 157 -8,6 C 0,0 km/h (0 Bft)
14.01.2016 03:10 -2,9 C -3,5 C 64 % 1016,7 hPa 0,0 mm 1,0 km/h (0 Bft) S 180 -8,7 C 0,0 km/h (0 Bft)
14.01.2016 03:15 -3,0 C -3,7 C 65 % 1016,7 hPa 0,0 mm 0,5 km/h (0 Bft) O-NO 67 -8,6 C 5,7 km/h (1 Bft)
14.01.2016 03:20 -3,0 C -3,7 C 65 % 1016,5 hPa 0,0 mm 0,8 km/h (0 Bft) S-SW 202 -8,6 C 0,0 km/h (0 Bft)
14.01.2016 03:25 -3,1 C -3,8 C 65 % 1016,5 hPa 0,0 mm 0,5 km/h (0 Bft) SO 135 -8,7 C 0,0 km/h (0 Bft)
14.01.2016 03:30 -3,1 C -3,9 C 66 % 1016,5 hPa 0,0 mm 0,0 km/h (0 Bft) S-SW 202 -8,5 C 0,0 km/h (0 Bft)
14.01.2016 03:35 -3,2 C -4,0 C 66 % 1016,5 hPa 0,0 mm 0,0 km/h (0 Bft) SO 135 -8,6 C 0,0 km/h (0 Bft)
14.01.2016 03:40 -3,2 C -4,0 C 67 % 1016,3 hPa 0,0 mm 0,0 km/h (0 Bft) S 180 -8,4 C 0,0 km/h (0 Bft)
14.01.2016 03:45 -3,2 C -4,1 C 67 % 1016,3 hPa 0,0 mm 0,0 km/h (0 Bft) S 180 -8,4 C 0,0 km/h (0 Bft)
14.01.2016 03:50 -3,3 C -4,1 C 67 % 1016,3 hPa 0,0 mm 0,0 km/h (0 Bft) S 180 -8,5 C 0,0 km/h (0 Bft)
14.01.2016 03:55 -3,4 C -4,2 C 66 % 1016,3 hPa 0,0 mm 0,3 km/h (0 Bft) W-SW 247 -8,8 C 0,0 km/h (0 Bft)
14.01.2016 04:00 -3,4 C -4,2 C 66 % 1015,9 hPa 0,0 mm 0,8 km/h (0 Bft) S 180 -8,8 C 2,6 km/h (1 Bft)
14.01.2016 04:05 -3,5 C -4,2 C 66 % 1015,9 hPa 0,0 mm 1,0 km/h (0 Bft) W-NW 292 -8,9 C 0,0 km/h (0 Bft)
14.01.2016 04:06 -3,5 C -4,2 C 67 % 1015,9 hPa 0,0 mm 0,8 km/h (0 Bft) S 180 -8,7 C 0,0 km/h (0 Bft)
14.01.2016 04:10 -3,5 C -4,2 C 67 % 1015,9 hPa 0,0 mm 0,8 km/h (0 Bft) S 180 -8,7 C 0,0 km/h (0 Bft)
14.01.2016 04:15 -3,6 C -4,3 C 67 % 1015,9 hPa 0,0 mm 0,0 km/h (0 Bft) O-SO 112 -8,8 C 0,0 km/h (0 Bft)
14.01.2016 04:20 -3,7 C -4,5 C 67 % 1015,5 hPa 0,0 mm 0,0 km/h (0 Bft) S 180 -8,9 C 0,0 km/h (0 Bft)
14.01.2016 04:25 -3,9 C -4,7 C 67 % 1015,5 hPa 0,0 mm 0,0 km/h (0 Bft) SO 135 -9,1 C 0,0 km/h (0 Bft)
14.01.2016 04:30 -4,3 C -5,1 C 67 % 1015,5 hPa 0,0 mm 0,0 km/h (0 Bft) SW 225 -9,5 C 0,0 km/h (0 Bft)
14.01.2016 04:35 -4,4 C -5,2 C 68 % 1015,5 hPa 0,0 mm 0,3 km/h (0 Bft) SO 135 -9,4 C 0,0 km/h (0 Bft)
14.01.2016 04:40 -4,7 C -5,4 C 68 % 1015,3 hPa 0,0 mm 0,3 km/h (0 Bft) O-NO 67 -9,7 C 0,0 km/h (0 Bft)
14.01.2016 04:45 -4,9 C -5,6 C 68 % 1015,3 hPa 0,0 mm 0,0 km/h (0 Bft) N-NW 337 -9,9 C 0,0 km/h (0 Bft)
14.01.2016 04:50 -4,8 C -5,6 C 69 % 1015,3 hPa 0,0 mm 0,0 km/h (0 Bft) O 90 -9,6 C 0,0 km/h (0 Bft)
14.01.2016 04:55 -5,0 C -5,7 C 69 % 1015,3 hPa 0,0 mm 0,3 km/h (0 Bft) O-NO 67 -9,8 C 0,0 km/h (0 Bft)
14.01.2016 05:00 -5,0 C -5,8 C 69 % 1014,8 hPa 0,0 mm 0,3 km/h (0 Bft) W-SW 247 -9,8 C 0,0 km/h (0 Bft)
14.01.2016 05:05 -5,1 C -5,8 C 69 % 1014,8 hPa 0,0 mm 0,0 km/h (0 Bft) O 90 -9,9 C 0,0 km/h (0 Bft)
14.01.2016 05:10 -5,1 C -5,8 C 69 % 1014,8 hPa 0,0 mm 0,0 km/h (0 Bft) S-SO 157 -9,9 C 0,0 km/h (0 Bft)
14.01.2016 05:15 -4,9 C -5,6 C 69 % 1014,8 hPa 0,0 mm 0,0 km/h (0 Bft) SO 135 -9,7 C 0,0 km/h (0 Bft)
14.01.2016 05:20 -5,0 C -5,7 C 69 % 1014,8 hPa 0,0 mm 0,0 km/h (0 Bft) S-SO 157 -9,8 C 0,0 km/h (0 Bft)
14.01.2016 05:25 -5,0 C -5,7 C 69 % 1014,8 hPa 0,0 mm 0,0 km/h (0 Bft) O-SO 112 -9,8 C 0,0 km/h (0 Bft)
14.01.2016 05:30 -5,3 C -5,9 C 69 % 1014,8 hPa 0,0 mm 0,0 km/h (0 Bft) N-NO 22 -10,1 C 0,0 km/h (0 Bft)
14.01.2016 05:35 -5,5 C -6,0 C 69 % 1014,8 hPa 0,0 mm 0,0 km/h (0 Bft) N-NO 22 -10,3 C 0,0 km/h (0 Bft)
14.01.2016 05:40 -5,2 C -5,8 C 70 % 1014,4 hPa 0,0 mm 0,0 km/h (0 Bft) O-NO 67 -9,8 C 0,0 km/h (0 Bft)
14.01.2016 05:45 -5,5 C -6,0 C 70 % 1014,4 hPa 0,0 mm 0,0 km/h (0 Bft) W 270 -10,1 C 0,0 km/h (0 Bft)
14.01.2016 05:50 -5,5 C -6,0 C 70 % 1014,4 hPa 0,0 mm 0,0 km/h (0 Bft) N-NW 337 -10,1 C 0,0 km/h (0 Bft)
14.01.2016 05:55 -5,4 C -5,9 C 70 % 1014,4 hPa 0,0 mm 0,3 km/h (0 Bft) N-NW 337 -10,0 C 0,0 km/h (0 Bft)
14.01.2016 06:00 -5,5 C -6,0 C 70 % 1014,1 hPa 0,0 mm 0,3 km/h (0 Bft) O-NO 67 -10,1 C 0,0 km/h (0 Bft)
14.01.2016 06:05 -5,1 C -5,7 C 71 % 1014,1 hPa 0,0 mm 0,0 km/h (0 Bft) O-NO 67 -9,5 C 0,0 km/h (0 Bft)
14.01.2016 06:10 -5,3 C -5,9 C 70 % 1014,1 hPa 0,0 mm 0,0 km/h (0 Bft) N-NO 22 -9,9 C 0,0 km/h (0 Bft)
14.01.2016 06:15 -5,0 C -5,7 C 71 % 1014,1 hPa 0,0 mm 0,0 km/h (0 Bft) SO 135 -9,4 C 0,0 km/h (0 Bft)
14.01.2016 06:20 -5,0 C -5,7 C 70 % 1014,2 hPa 0,0 mm 0,0 km/h (0 Bft) O-SO 112 -9,6 C 0,0 km/h (0 Bft)
14.01.2016 06:25 -5,1 C -5,8 C 70 % 1014,2 hPa 0,0 mm 0,0 km/h (0 Bft) NO 45 -9,7 C 0,0 km/h (0 Bft)
14.01.2016 06:30 -5,3 C -5,9 C 70 % 1014,2 hPa 0,0 mm 0,0 km/h (0 Bft) W-SW 247 -9,9 C 0,0 km/h (0 Bft)
14.01.2016 06:35 -5,3 C -6,0 C 70 % 1014,2 hPa 0,0 mm 0,0 km/h (0 Bft) O-NO 67 -9,9 C 0,0 km/h (0 Bft)
14.01.2016 06:40 -5,4 C -6,0 C 70 % 1013,7 hPa 0,0 mm 0,0 km/h (0 Bft) SO 135 -10,0 C 0,0 km/h (0 Bft)
14.01.2016 06:45 -5,4 C -6,0 C 70 % 1013,7 hPa 0,0 mm 0,5 km/h (0 Bft) O-NO 67 -10,0 C 0,0 km/h (0 Bft)
14.01.2016 06:50 -5,4 C -6,0 C 70 % 1013,7 hPa 0,0 mm 0,3 km/h (0 Bft) O-NO 67 -10,0 C 0,0 km/h (0 Bft)
14.01.2016 06:55 -5,3 C -5,9 C 70 % 1013,7 hPa 0,0 mm 0,0 km/h (0 Bft) NO 45 -9,9 C 0,0 km/h (0 Bft)
14.01.2016 07:00 -5,5 C -6,1 C 70 % 1013,7 hPa 0,0 mm 0,0 km/h (0 Bft) N-NO 22 -10,1 C 0,0 km/h (0 Bft)
14.01.2016 07:05 -5,4 C -6,0 C 70 % 1013,7 hPa 0,0 mm 0,8 km/h (0 Bft) O-NO 67 -10,0 C 0,0 km/h (0 Bft)
14.01.2016 07:10 -5,5 C -6,0 C 70 % 1013,7 hPa 0,0 mm 0,8 km/h (0 Bft) NO 45 -10,1 C 0,0 km/h (0 Bft)
14.01.2016 07:15 -5,1 C -5,8 C 71 % 1013,7 hPa 0,0 mm 0,5 km/h (0 Bft) O-SO 112 -9,5 C 2,8 km/h (1 Bft)
14.01.2016 07:20 -5,5 C -6,1 C 70 % 1013,5 hPa 0,0 mm 0,3 km/h (0 Bft) NO 45 -10,1 C 0,0 km/h (0 Bft)
14.01.2016 07:25 -5,4 C -6,0 C 70 % 1013,5 hPa 0,0 mm 0,5 km/h (0 Bft) NW 315 -10,0 C 3,6 km/h (1 Bft)
14.01.2016 07:30 -5,7 C -6,2 C 70 % 1013,5 hPa 0,0 mm 0,5 km/h (0 Bft) S-SO 157 -10,3 C 0,0 km/h (0 Bft)
14.01.2016 07:35 -5,7 C -6,2 C 70 % 1013,5 hPa 0,0 mm 0,5 km/h (0 Bft) N-NW 337 -10,3 C 0,0 km/h (0 Bft)
14.01.2016 07:40 -5,8 C -6,3 C 70 % 1012,9 hPa 0,0 mm 0,0 km/h (0 Bft) N-NW 337 -10,4 C 0,0 km/h (0 Bft)
14.01.2016 07:45 -5,8 C -6,3 C 70 % 1012,9 hPa 0,0 mm 0,0 km/h (0 Bft) O-NO 67 -10,4 C 0,0 km/h (0 Bft)
14.01.2016 07:50 -5,8 C -6,3 C 70 % 1012,9 hPa 0,0 mm 0,0 km/h (0 Bft) S 180 -10,4 C 0,0 km/h (0 Bft)
14.01.2016 07:55 -5,7 C -6,2 C 70 % 1012,9 hPa 0,0 mm 0,3 km/h (0 Bft) N-NW 337 -10,3 C 4,4 km/h (1 Bft)
14.01.2016 08:00 -5,5 C -6,1 C 71 % 1012,6 hPa 0,0 mm 0,3 km/h (0 Bft) W 270 -9,9 C 0,0 km/h (0 Bft)
14.01.2016 08:05 -5,5 C -6,1 C 71 % 1012,6 hPa 0,0 mm 0,3 km/h (0 Bft) W-SW 247 -9,9 C 0,0 km/h (0 Bft)
14.01.2016 08:10 -5,6 C -6,1 C 70 % 1012,6 hPa 0,0 mm 0,3 km/h (0 Bft) N-NO 22 -10,2 C 0,0 km/h (0 Bft)
14.01.2016 08:15 -5,2 C -5,9 C 70 % 1012,6 hPa 0,0 mm 0,5 km/h (0 Bft) SW 225 -9,8 C 0,0 km/h (0 Bft)
14.01.2016 08:20 -5,2 C -5,9 C 70 % 1012,1 hPa 0,0 mm 0,3 km/h (0 Bft) N-NO 22 -9,8 C 3,6 km/h (1 Bft)
14.01.2016 08:25 -5,3 C -5,9 C 70 % 1012,1 hPa 0,0 mm 0,5 km/h (0 Bft) W 270 -9,9 C 0,0 km/h (0 Bft)
14.01.2016 08:30 -5,3 C -5,9 C 70 % 1012,1 hPa 0,0 mm 0,8 km/h (0 Bft) O-NO 67 -9,9 C 0,0 km/h (0 Bft)
14.01.2016 08:35 -5,4 C -6,0 C 70 % 1012,1 hPa 0,0 mm 0,5 km/h (0 Bft) W-SW 247 -10,0 C 3,4 km/h (1 Bft)
14.01.2016 08:40 -5,0 C -5,7 C 69 % 1011,8 hPa 0,0 mm 0,3 km/h (0 Bft) O-NO 67 -9,8 C 0,0 km/h (0 Bft)
14.01.2016 08:45 -5,4 C -5,9 C 69 % 1011,8 hPa 0,0 mm 0,3 km/h (0 Bft) N-NW 337 -10,2 C 0,0 km/h (0 Bft)
14.01.2016 08:50 -5,5 C -6,0 C 69 % 1011,8 hPa 0,0 mm 0,0 km/h (0 Bft) N-NW 337 -10,3 C 0,0 km/h (0 Bft)
14.01.2016 08:55 -5,6 C -6,0 C 69 % 1011,8 hPa 0,0 mm 0,0 km/h (0 Bft) N-NW 337 -10,4 C 0,0 km/h (0 Bft)
14.01.2016 09:00 -5,4 C -5,9 C 69 % 1011,4 hPa 0,0 mm 0,0 km/h (0 Bft) W 270 -10,2 C 0,0 km/h (0 Bft)
14.01.2016 09:05 -5,2 C -5,6 C 70 % 1011,4 hPa 0,0 mm 0,0 km/h (0 Bft) NW 315 -9,8 C 0,0 km/h (0 Bft)
14.01.2016 09:10 -5,1 C -5,5 C 70 % 1011,4 hPa 0,0 mm 0,0 km/h (0 Bft) W-NW 292 -9,7 C 0,0 km/h (0 Bft)
14.01.2016 09:15 -4,9 C -5,3 C 70 % 1011,4 hPa 0,0 mm 0,0 km/h (0 Bft) NW 315 -9,5 C 0,0 km/h (0 Bft)
14.01.2016 09:20 -4,9 C -5,2 C 70 % 1011,3 hPa 0,0 mm 0,0 km/h (0 Bft) W-NW 292 -9,5 C 0,0 km/h (0 Bft)
14.01.2016 09:25 -4,7 C -5,0 C 71 % 1011,3 hPa 0,0 mm 0,0 km/h (0 Bft) W-NW 292 -9,1 C 0,0 km/h (0 Bft)
14.01.2016 09:30 -4,5 C -4,8 C 71 % 1011,3 hPa 0,0 mm 0,0 km/h (0 Bft) NO 45 -8,9 C 0,0 km/h (0 Bft)
14.01.2016 09:35 -4,2 C -4,4 C 70 % 1011,3 hPa 0,0 mm 0,0 km/h (0 Bft) O-NO 67 -8,8 C 0,0 km/h (0 Bft)
14.01.2016 09:40 -4,0 C -4,2 C 70 % 1011,2 hPa 0,0 mm 0,0 km/h (0 Bft) W 270 -8,6 C 0,0 km/h (0 Bft)
14.01.2016 09:45 -3,8 C -4,0 C 70 % 1011,2 hPa 0,0 mm 0,0 km/h (0 Bft) O-SO 112 -8,4 C 0,0 km/h (0 Bft)
14.01.2016 09:50 -3,6 C -3,8 C 70 % 1011,2 hPa 0,0 mm 0,0 km/h (0 Bft) O-NO 67 -8,3 C 0,0 km/h (0 Bft)
14.01.2016 09:55 -3,5 C -3,4 C 66 % 1011,2 hPa 0,0 mm 0,0 km/h (0 Bft) SO 135 -8,9 C 0,0 km/h (0 Bft)
14.01.2016 10:00 -3,5 C -3,3 C 66 % 1011,0 hPa 0,0 mm 0,0 km/h (0 Bft) O 90 -8,9 C 0,0 km/h (0 Bft)
14.01.2016 10:05 -3,5 C -3,0 C 66 % 1011,0 hPa 0,0 mm 0,5 km/h (0 Bft) O-NO 67 -8,9 C 0,0 km/h (0 Bft)
14.01.2016 10:06 -3,2 C -2,8 C 69 % 1011,0 hPa 0,0 mm 0,5 km/h (0 Bft) O 90 -8,1 C 0,0 km/h (0 Bft)
14.01.2016 10:11 -3,2 C -2,8 C 69 % 1011,0 hPa 0,0 mm 0,5 km/h (0 Bft) O 90 -8,1 C 0,0 km/h (0 Bft)
14.01.2016 10:15 -3,0 C -2,6 C 69 % 1011,0 hPa 0,0 mm 0,0 km/h (0 Bft) O-SO 112 -7,9 C 0,0 km/h (0 Bft)
14.01.2016 10:20 -3,0 C -2,5 C 69 % 1010,9 hPa 0,0 mm 0,0 km/h (0 Bft) NO 45 -7,9 C 0,0 km/h (0 Bft)
14.01.2016 10:25 -2,7 C -2,2 C 68 % 1010,9 hPa 0,0 mm 0,0 km/h (0 Bft) NO 45 -7,8 C 0,0 km/h (0 Bft)
14.01.2016 10:30 -2,6 C -2,0 C 68 % 1010,9 hPa 0,0 mm 1,0 km/h (0 Bft) W-SW 247 -7,7 C 6,5 km/h (2 Bft)
14.01.2016 10:35 -2,6 C -2,0 C 68 % 1010,9 hPa 0,0 mm 2,1 km/h (1 Bft) NW 315 -7,7 C 2,8 km/h (1 Bft)
14.01.2016 10:40 -2,5 C -2,0 C 68 % 1010,6 hPa 0,0 mm 2,3 km/h (1 Bft) W 270 -7,6 C 3,9 km/h (1 Bft)
14.01.2016 10:45 -2,2 C -1,8 C 68 % 1010,6 hPa 0,0 mm 3,1 km/h (1 Bft) W 270 -7,3 C 7,0 km/h (2 Bft)
14.01.2016 10:50 -2,1 C -1,9 C 67 % 1010,6 hPa 0,0 mm 4,7 km/h (1 Bft) W 270 -7,4 C 4,7 km/h (1 Bft)
14.01.2016 10:55 -2,0 C -1,5 C 67 % 1010,6 hPa 0,0 mm 4,4 km/h (1 Bft) W-NW 292 -7,3 C 4,4 km/h (1 Bft)
14.01.2016 11:00 -1,7 C -1,1 C 67 % 1010,4 hPa 0,0 mm 3,6 km/h (1 Bft) NW 315 -7,0 C 5,4 km/h (1 Bft)
14.01.2016 11:05 -1,6 C -0,9 C 67 % 1010,4 hPa 0,0 mm 3,1 km/h (1 Bft) W-SW 247 -6,9 C 0,0 km/h (0 Bft)
14.01.2016 11:10 -1,4 C -0,8 C 66 % 1010,4 hPa 0,0 mm 2,3 km/h (1 Bft) N-NO 22 -6,9 C 2,8 km/h (1 Bft)
14.01.2016 11:15 -1,2 C -0,6 C 66 % 1010,4 hPa 0,0 mm 2,6 km/h (1 Bft) N-NO 22 -6,7 C 3,6 km/h (1 Bft)
14.01.2016 11:20 -1,1 C -0,6 C 65 % 1010,2 hPa 0,0 mm 2,3 km/h (1 Bft) N 360 -6,8 C 0,0 km/h (0 Bft)
14.01.2016 11:25 -1,0 C -0,3 C 65 % 1010,2 hPa 0,0 mm 0,8 km/h (0 Bft) N-NO 22 -6,7 C 0,0 km/h (0 Bft)
14.01.2016 11:26 -0,9 C -0,1 C 64 % 1010,2 hPa 0,0 mm 0,3 km/h (0 Bft) O-NO 67 -6,8 C 0,0 km/h (0 Bft)
14.01.2016 11:31 -0,9 C 0,1 C 63 % 1010,2 hPa 0,0 mm 0,0 km/h (0 Bft) NO 45 -7,0 C 0,0 km/h (0 Bft)
14.01.2016 11:32 -0,9 C 0,1 C 63 % 1010,2 hPa 0,0 mm 0,0 km/h (0 Bft) NO 45 -7,0 C 0,0 km/h (0 Bft)
14.01.2016 11:35 -0,9 C 0,1 C 63 % 1010,2 hPa 0,0 mm 0,0 km/h (0 Bft) NO 45 -7,0 C 0,0 km/h (0 Bft)
14.01.2016 11:40 -0,7 C 0,2 C 63 % 1010,1 hPa 0,0 mm 0,0 km/h (0 Bft) O 90 -6,8 C 0,0 km/h (0 Bft)
14.01.2016 11:45 -0,6 C 0,2 C 62 % 1010,1 hPa 0,0 mm 0,5 km/h (0 Bft) O-NO 67 -7,0 C 0,0 km/h (0 Bft)
14.01.2016 11:50 -0,4 C 0,4 C 62 % 1010,1 hPa 0,0 mm 0,8 km/h (0 Bft) O-NO 67 -6,8 C 3,9 km/h (1 Bft)
14.01.2016 11:55 -0,1 C 0,8 C 62 % 1010,1 hPa 0,0 mm 2,8 km/h (1 Bft) N-NW 337 -6,5 C 2,6 km/h (1 Bft)
14.01.2016 12:00 0,2 C 1,1 C 62 % 1009,5 hPa 0,0 mm 3,1 km/h (1 Bft) N-NW 337 -6,2 C 3,4 km/h (1 Bft)
14.01.2016 12:05 0,5 C 1,5 C 61 % 1009,5 hPa 0,0 mm 1,8 km/h (1 Bft) NW 315 -6,1 C 2,6 km/h (1 Bft)
14.01.2016 12:10 0,7 C 1,7 C 61 % 1009,5 hPa 0,0 mm 1,6 km/h (1 Bft) N-NW 337 -5,9 C 2,8 km/h (1 Bft)
14.01.2016 12:15 0,7 C 1,6 C 59 % 1009,5 hPa 0,0 mm 2,6 km/h (1 Bft) O-NO 67 -6,4 C 7,3 km/h (2 Bft)
14.01.2016 12:20 0,6 C 1,2 C 58 % 1009,0 hPa 0,0 mm 3,4 km/h (1 Bft) O-SO 112 -6,7 C 0,0 km/h (0 Bft)
14.01.2016 12:25 0,3 C 0,6 C 59 % 1009,0 hPa 0,0 mm 1,3 km/h (1 Bft) O-SO 112 -6,8 C 0,0 km/h (0 Bft)
14.01.2016 12:30 0,0 C 0,2 C 59 % 1009,0 hPa 0,0 mm 0,0 km/h (0 Bft) SO 135 -7,0 C 0,0 km/h (0 Bft)
14.01.2016 12:35 -0,2 C -0,3 C 58 % 1009,0 hPa 0,0 mm 0,0 km/h (0 Bft) O 90 -7,4 C 0,0 km/h (0 Bft)
14.01.2016 12:40 -0,2 C -0,4 C 58 % 1008,9 hPa 0,0 mm 0,0 km/h (0 Bft) O-NO 67 -7,4 C 0,0 km/h (0 Bft)
14.01.2016 12:45 -0,5 C -0,6 C 58 % 1008,9 hPa 0,0 mm 0,0 km/h (0 Bft) NW 315 -7,7 C 0,0 km/h (0 Bft)
14.01.2016 12:50 -0,6 C -0,8 C 58 % 1008,9 hPa 0,0 mm 0,0 km/h (0 Bft) NW 315 -7,8 C 0,0 km/h (0 Bft)
14.01.2016 12:55 -0,4 C -0,7 C 58 % 1008,9 hPa 0,0 mm 0,0 km/h (0 Bft) W-SW 247 -7,6 C 0,0 km/h (0 Bft)
14.01.2016 13:00 0,0 C -0,4 C 58 % 1008,8 hPa 0,0 mm 0,0 km/h (0 Bft) W-SW 247 -7,3 C 0,0 km/h (0 Bft)
14.01.2016 13:05 0,2 C -0,2 C 58 % 1008,8 hPa 0,0 mm 0,0 km/h (0 Bft) SO 135 -7,1 C 0,0 km/h (0 Bft)
14.01.2016 13:10 0,2 C -0,1 C 58 % 1008,8 hPa 0,0 mm 0,0 km/h (0 Bft) SO 135 -7,1 C 0,0 km/h (0 Bft)
14.01.2016 13:15 0,0 C -0,3 C 58 % 1008,8 hPa 0,0 mm 0,0 km/h (0 Bft) SO 135 -7,3 C 0,0 km/h (0 Bft)
14.01.2016 13:20 0,2 C -0,2 C 58 % 1008,5 hPa 0,0 mm 0,0 km/h (0 Bft) SO 135 -7,1 C 0,0 km/h (0 Bft)
14.01.2016 13:25 0,4 C 0,0 C 58 % 1008,5 hPa 0,0 mm 0,0 km/h (0 Bft) O-NO 67 -6,9 C 0,0 km/h (0 Bft)
14.01.2016 13:30 0,3 C -0,1 C 57 % 1008,5 hPa 0,0 mm 0,0 km/h (0 Bft) O-NO 67 -7,2 C 0,0 km/h (0 Bft)
14.01.2016 13:35 0,3 C -0,1 C 57 % 1008,5 hPa 0,0 mm 0,0 km/h (0 Bft) O-NO 67 -7,2 C 0,0 km/h (0 Bft)
14.01.2016 13:40 0,3 C -0,1 C 57 % 1007,9 hPa 0,0 mm 0,0 km/h (0 Bft) SO 135 -7,2 C 0,0 km/h (0 Bft)
14.01.2016 13:45 0,6 C 0,1 C 56 % 1007,9 hPa 0,0 mm 0,0 km/h (0 Bft) O-SO 112 -7,1 C 0,0 km/h (0 Bft)
14.01.2016 13:50 0,6 C 0,2 C 56 % 1007,9 hPa 0,0 mm 0,0 km/h (0 Bft) O-SO 112 -7,1 C 0,0 km/h (0 Bft)
14.01.2016 13:55 0,9 C 0,8 C 56 % 1007,9 hPa 0,0 mm 0,0 km/h (0 Bft) O 90 -6,9 C 0,0 km/h (0 Bft)
14.01.2016 14:00 1,5 C 2,4 C 56 % 1007,4 hPa 0,0 mm 0,0 km/h (0 Bft) S-SW 202 -6,3 C 0,0 km/h (0 Bft)
14.01.2016 14:05 2,7 C 5,6 C 54 % 1007,4 hPa 0,0 mm 0,0 km/h (0 Bft) W-SW 247 -5,7 C 0,0 km/h (0 Bft)
14.01.2016 14:10 3,0 C 7,3 C 52 % 1007,4 hPa 0,0 mm 0,0 km/h (0 Bft) S 180 -5,9 C 0,0 km/h (0 Bft)
14.01.2016 14:15 1,8 C 7,7 C 54 % 1007,4 hPa 0,0 mm 0,0 km/h (0 Bft) O-NO 67 -6,5 C 0,0 km/h (0 Bft)
14.01.2016 14:20 1,4 C 6,4 C 54 % 1007,2 hPa 0,0 mm 0,0 km/h (0 Bft) W-NW 292 -6,9 C 0,0 km/h (0 Bft)
14.01.2016 14:25 1,2 C 5,2 C 55 % 1007,2 hPa 0,0 mm 0,3 km/h (0 Bft) W-NW 292 -6,8 C 3,4 km/h (1 Bft)
14.01.2016 14:30 1,2 C 5,2 C 55 % 1007,2 hPa 0,0 mm 1,0 km/h (0 Bft) W-NW 292 -6,8 C 2,6 km/h (1 Bft)
14.01.2016 14:35 1,1 C 4,0 C 56 % 1007,2 hPa 0,0 mm 2,6 km/h (1 Bft) W-NW 292 -6,7 C 3,9 km/h (1 Bft)
14.01.2016 14:40 1,1 C 3,3 C 56 % 1007,4 hPa 0,0 mm 3,1 km/h (1 Bft) W 270 -6,7 C 0,0 km/h (0 Bft)
14.01.2016 14:45 1,1 C 2,1 C 56 % 1007,4 hPa 0,0 mm 2,3 km/h (1 Bft) NW 315 -6,7 C 4,4 km/h (1 Bft)
14.01.2016 14:50 1,2 C 1,9 C 57 % 1007,4 hPa 0,0 mm 1,6 km/h (1 Bft) W 270 -6,4 C 2,8 km/h (1 Bft)
14.01.2016 14:55 1,4 C 1,9 C 57 % 1007,4 hPa 0,0 mm 1,3 km/h (1 Bft) NW 315 -6,2 C 0,0 km/h (0 Bft)
14.01.2016 15:00 1,4 C 2,0 C 57 % 1007,2 hPa 0,0 mm 1,3 km/h (1 Bft) W-SW 247 -6,2 C 0,0 km/h (0 Bft)
14.01.2016 15:05 1,5 C 2,2 C 57 % 1007,2 hPa 0,0 mm 0,3 km/h (0 Bft) W-SW 247 -6,1 C 0,0 km/h (0 Bft)
14.01.2016 15:10 1,5 C 2,7 C 57 % 1007,2 hPa 0,0 mm 0,0 km/h (0 Bft) W-SW 247 -6,1 C 0,0 km/h (0 Bft)
14.01.2016 15:15 1,5 C 3,3 C 57 % 1007,2 hPa 0,0 mm 0,0 km/h (0 Bft) W 270 -6,1 C 2,6 km/h (1 Bft)
14.01.2016 15:20 1,5 C 2,9 C 57 % 1007,0 hPa 0,0 mm 0,3 km/h (0 Bft) W-SW 247 -6,1 C 0,0 km/h (0 Bft)
14.01.2016 15:25 1,5 C 2,5 C 58 % 1007,0 hPa 0,0 mm 0,3 km/h (0 Bft) W-NW 292 -5,8 C 0,0 km/h (0 Bft)
14.01.2016 15:30 1,5 C 2,2 C 58 % 1007,0 hPa 0,0 mm 0,0 km/h (0 Bft) NW 315 -5,8 C 0,0 km/h (0 Bft)
14.01.2016 15:35 1,2 C 1,7 C 58 % 1007,0 hPa 0,0 mm 0,0 km/h (0 Bft) NW 315 -6,1 C 0,0 km/h (0 Bft)
14.01.2016 15:40 1,1 C 1,5 C 58 % 1007,0 hPa 0,0 mm 0,0 km/h (0 Bft) W-SW 247 -6,2 C 0,0 km/h (0 Bft)
14.01.2016 15:45 1,1 C 1,1 C 58 % 1007,0 hPa 0,0 mm 1,0 km/h (0 Bft) W-SW 247 -6,2 C 3,6 km/h (1 Bft)
14.01.2016 15:50 1,0 C 1,0 C 58 % 1007,0 hPa 0,0 mm 2,6 km/h (1 Bft) W-SW 247 -6,3 C 4,7 km/h (1 Bft)
14.01.2016 15:55 1,0 C 0,9 C 58 % 1007,0 hPa 0,0 mm 3,9 km/h (1 Bft) SW 225 -6,3 C 4,9 km/h (1 Bft)
14.01.2016 16:00 1,0 C 0,8 C 58 % 1007,2 hPa 0,0 mm 4,4 km/h (1 Bft) SW 225 -6,3 C 4,7 km/h (1 Bft)
14.01.2016 16:05 0,9 C 0,6 C 58 % 1007,2 hPa 0,0 mm 5,2 km/h (1 Bft) W 270 -6,4 C 7,8 km/h (2 Bft)
14.01.2016 16:10 0,9 C 0,6 C 58 % 1007,2 hPa 0,0 mm 5,2 km/h (1 Bft) S 180 -6,4 C 5,2 km/h (1 Bft)
14.01.2016 16:15 0,8 C 0,6 C 58 % 1007,2 hPa 0,0 mm 4,4 km/h (1 Bft) S 180 -6,5 C 6,5 km/h (2 Bft)
14.01.2016 16:20 0,7 C 0,6 C 58 % 1006,8 hPa 0,0 mm 2,3 km/h (1 Bft) W-SW 247 -6,6 C 0,0 km/h (0 Bft)
14.01.2016 16:25 0,6 C 0,5 C 58 % 1006,8 hPa 0,0 mm 0,8 km/h (0 Bft) SO 135 -6,7 C 0,0 km/h (0 Bft)
14.01.2016 16:30 0,5 C 0,4 C 58 % 1006,8 hPa 0,0 mm 0,3 km/h (0 Bft) SO 135 -6,8 C 0,0 km/h (0 Bft)
14.01.2016 16:35 0,5 C 0,3 C 58 % 1006,8 hPa 0,0 mm 0,0 km/h (0 Bft) SO 135 -6,8 C 0,0 km/h (0 Bft)
14.01.2016 16:40 0,4 C 0,2 C 59 % 1006,7 hPa 0,0 mm 0,3 km/h (0 Bft) W 270 -6,7 C 2,8 km/h (1 Bft)
14.01.2016 16:45 0,4 C 0,2 C 59 % 1006,7 hPa 0,0 mm 0,8 km/h (0 Bft) SO 135 -6,7 C 0,0 km/h (0 Bft)
14.01.2016 16:50 0,3 C 0,1 C 59 % 1006,7 hPa 0,0 mm 1,0 km/h (0 Bft) S-SW 202 -6,8 C 0,0 km/h (0 Bft)
14.01.2016 16:55 0,2 C 0,0 C 59 % 1006,7 hPa 0,0 mm 0,5 km/h (0 Bft) O-SO 112 -6,8 C 0,0 km/h (0 Bft)
14.01.2016 17:00 0,2 C 0,0 C 60 % 1006,6 hPa 0,0 mm 0,3 km/h (0 Bft) O-SO 112 -6,6 C 0,0 km/h (0 Bft)
14.01.2016 17:05 0,3 C 0,0 C 59 % 1006,6 hPa 0,0 mm 0,3 km/h (0 Bft) S 180 -6,8 C 2,6 km/h (1 Bft)
14.01.2016 17:10 0,3 C 0,0 C 59 % 1006,6 hPa 0,0 mm 0,3 km/h (0 Bft) S-SO 157 -6,8 C 0,0 km/h (0 Bft)
14.01.2016 17:15 0,0 C -0,2 C 60 % 1006,6 hPa 0,0 mm 0,3 km/h (0 Bft) S-SO 157 -6,8 C 0,0 km/h (0 Bft)
14.01.2016 17:20 0,0 C -0,2 C 60 % 1006,4 hPa 0,0 mm 0,0 km/h (0 Bft) SO 135 -6,8 C 0,0 km/h (0 Bft)
14.01.2016 17:25 -0,1 C -0,3 C 61 % 1006,4 hPa 0,0 mm 0,0 km/h (0 Bft) NW 315 -6,7 C 0,0 km/h (0 Bft)
14.01.2016 17:30 -0,2 C -0,4 C 61 % 1006,4 hPa 0,0 mm 0,0 km/h (0 Bft) O-SO 112 -6,8 C 0,0 km/h (0 Bft)
14.01.2016 17:31 -0,3 C -0,5 C 61 % 1006,4 hPa 0,0 mm 0,0 km/h (0 Bft) W 270 -6,9 C 0,0 km/h (0 Bft)
14.01.2016 17:33 -0,3 C -0,5 C 61 % 1006,4 hPa 0,0 mm 0,0 km/h (0 Bft) W 270 -6,9 C 0,0 km/h (0 Bft)
14.01.2016 17:35 -0,3 C -0,5 C 61 % 1006,4 hPa 0,0 mm 0,0 km/h (0 Bft) W 270 -6,9 C 0,0 km/h (0 Bft)
14.01.2016 17:40 -0,3 C -0,5 C 62 % 1006,5 hPa 0,0 mm 0,0 km/h (0 Bft) W-SW 247 -6,7 C 2,6 km/h (1 Bft)
14.01.2016 17:45 -0,1 C -0,4 C 62 % 1006,5 hPa 0,0 mm 0,8 km/h (0 Bft) SW 225 -6,5 C 2,6 km/h (1 Bft)
14.01.2016 17:50 -0,1 C -0,4 C 62 % 1006,5 hPa 0,0 mm 0,8 km/h (0 Bft) W-SW 247 -6,5 C 0,0 km/h (0 Bft)
14.01.2016 17:55 -0,1 C -0,3 C 62 % 1006,5 hPa 0,0 mm 0,0 km/h (0 Bft) SW 225 -6,5 C 0,0 km/h (0 Bft)
14.01.2016 18:00 -0,1 C -0,4 C 63 % 1006,7 hPa 0,0 mm 0,0 km/h (0 Bft) W-NW 292 -6,3 C 0,0 km/h (0 Bft)
14.01.2016 18:05 -0,1 C -0,3 C 63 % 1006,7 hPa 0,0 mm 0,0 km/h (0 Bft) SO 135 -6,3 C 0,0 km/h (0 Bft)
14.01.2016 18:10 0,0 C -0,3 C 63 % 1006,7 hPa 0,0 mm 0,0 km/h (0 Bft) O-SO 112 -6,2 C 0,0 km/h (0 Bft)
14.01.2016 18:15 0,0 C -0,3 C 63 % 1006,7 hPa 0,0 mm 0,8 km/h (0 Bft) W-SW 247 -6,2 C 4,7 km/h (1 Bft)
14.01.2016 18:20 0,0 C -0,2 C 63 % 1006,8 hPa 0,0 mm 1,6 km/h (1 Bft) S 180 -6,2 C 4,4 km/h (1 Bft)
14.01.2016 18:25 0,0 C -0,2 C 62 % 1006,8 hPa 0,0 mm 1,3 km/h (1 Bft) W 270 -6,4 C 6,2 km/h (2 Bft)
14.01.2016 18:30 0,0 C -0,2 C 62 % 1006,8 hPa 0,0 mm 3,1 km/h (1 Bft) W 270 -6,4 C 10,9 km/h (2 Bft)
14.01.2016 18:35 0,2 C -0,5 C 60 % 1006,8 hPa 0,0 mm 7,8 km/h (2 Bft) W 270 -6,6 C 12,4 km/h (3 Bft)
14.01.2016 18:40 0,2 C -0,6 C 59 % 1007,2 hPa 0,0 mm 8,5 km/h (2 Bft) N-NW 337 -6,8 C 6,5 km/h (2 Bft)
14.01.2016 18:45 0,2 C -0,5 C 59 % 1007,2 hPa 0,0 mm 8,3 km/h (2 Bft) W 270 -6,8 C 10,9 km/h (2 Bft)
14.01.2016 18:50 0,2 C -0,5 C 59 % 1007,2 hPa 0,0 mm 8,0 km/h (2 Bft) W-NW 292 -6,8 C 13,7 km/h (3 Bft)
14.01.2016 18:55 0,1 C -0,3 C 59 % 1007,2 hPa 0,0 mm 6,0 km/h (2 Bft) W-SW 247 -6,9 C 2,8 km/h (1 Bft)
14.01.2016 19:00 0,0 C -0,1 C 59 % 1007,3 hPa 0,0 mm 4,1 km/h (1 Bft) W 270 -7,0 C 3,6 km/h (1 Bft)
14.01.2016 19:05 -0,1 C -0,2 C 59 % 1007,3 hPa 0,0 mm 3,4 km/h (1 Bft) NW 315 -7,1 C 9,6 km/h (2 Bft)
14.01.2016 19:10 -0,2 C -0,4 C 59 % 1007,3 hPa 0,0 mm 4,1 km/h (1 Bft) W-NW 292 -7,2 C 3,9 km/h (1 Bft)
14.01.2016 19:15 -0,3 C -0,6 C 59 % 1007,3 hPa 0,0 mm 4,4 km/h (1 Bft) W 270 -7,3 C 3,4 km/h (1 Bft)
14.01.2016 19:20 -0,4 C -0,7 C 60 % 1007,8 hPa 0,0 mm 4,4 km/h (1 Bft) W-NW 292 -7,2 C 4,7 km/h (1 Bft)
14.01.2016 19:25 -0,5 C -1,0 C 67 % 1007,8 hPa 0,0 mm 6,2 km/h (2 Bft) W 270 -5,9 C 7,0 km/h (2 Bft)
14.01.2016 19:30 -0,6 C -1,2 C 68 % 1007,8 hPa 0,0 mm 6,7 km/h (2 Bft) W 270 -5,8 C 7,3 km/h (2 Bft)
14.01.2016 19:35 -0,6 C -1,1 C 71 % 1007,8 hPa 0,0 mm 6,0 km/h (2 Bft) W-SW 247 -5,2 C 5,7 km/h (1 Bft)
14.01.2016 19:40 -0,6 C -1,1 C 72 % 1007,8 hPa 0,0 mm 5,7 km/h (1 Bft) W-SW 247 -5,0 C 6,2 km/h (2 Bft)
14.01.2016 19:45 -0,6 C -1,1 C 68 % 1007,8 hPa 0,0 mm 6,2 km/h (2 Bft) W-SW 247 -5,8 C 9,3 km/h (2 Bft)
14.01.2016 19:50 -0,4 C -0,9 C 69 % 1007,8 hPa 0,0 mm 6,2 km/h (2 Bft) NW 315 -5,4 C 5,7 km/h (1 Bft)
14.01.2016 19:55 -0,1 C -0,9 C 76 % 1007,8 hPa 0,0 mm 7,5 km/h (2 Bft) W-SW 247 -3,8 C 9,6 km/h (2 Bft)
14.01.2016 20:00 0,0 C -0,8 C 77 % 1007,7 hPa 0,0 mm 7,5 km/h (2 Bft) W 270 -3,5 C 11,9 km/h (2 Bft)
14.01.2016 20:05 0,1 C -0,6 C 72 % 1007,7 hPa 0,0 mm 8,0 km/h (2 Bft) W-SW 247 -4,3 C 8,5 km/h (2 Bft)
14.01.2016 20:10 0,2 C -0,5 C 72 % 1007,7 hPa 0,0 mm 8,3 km/h (2 Bft) W 270 -4,2 C 9,8 km/h (2 Bft)
14.01.2016 20:15 0,2 C -0,5 C 73 % 1007,7 hPa 0,0 mm 8,3 km/h (2 Bft) W-NW 292 -4,1 C 10,1 km/h (2 Bft)
14.01.2016 20:20 0,3 C -0,4 C 79 % 1007,7 hPa 0,0 mm 8,0 km/h (2 Bft) W 270 -2,9 C 6,5 km/h (2 Bft)
14.01.2016 20:25 0,2 C -0,3 C 79 % 1007,7 hPa 0,0 mm 6,2 km/h (2 Bft) W-SW 247 -3,0 C 7,8 km/h (2 Bft)
14.01.2016 20:30 0,2 C -0,2 C 74 % 1007,7 hPa 0,0 mm 6,2 km/h (2 Bft) W 270 -3,9 C 8,8 km/h (2 Bft)
14.01.2016 20:35 0,2 C -0,4 C 80 % 1007,7 hPa 0,0 mm 6,7 km/h (2 Bft) W-SW 247 -2,8 C 9,8 km/h (2 Bft)
14.01.2016 20:40 0,1 C -0,4 C 81 % 1007,8 hPa 0,0 mm 6,0 km/h (2 Bft) W-SW 247 -2,8 C 4,7 km/h (1 Bft)
14.01.2016 20:45 0,1 C -0,2 C 80 % 1007,8 hPa 0,0 mm 4,4 km/h (1 Bft) SW 225 -2,9 C 6,2 km/h (2 Bft)
14.01.2016 20:50 0,0 C -0,2 C 81 % 1007,8 hPa 0,0 mm 2,8 km/h (1 Bft) W-SW 247 -2,9 C 0,0 km/h (0 Bft)
14.01.2016 20:55 0,0 C -0,2 C 81 % 1007,8 hPa 0,0 mm 2,1 km/h (1 Bft) W-SW 247 -2,9 C 0,0 km/h (0 Bft)
14.01.2016 21:00 0,0 C -0,2 C 81 % 1007,7 hPa 0,0 mm 1,3 km/h (1 Bft) W-NW 292 -2,9 C 0,0 km/h (0 Bft)
14.01.2016 21:05 0,0 C -0,3 C 81 % 1007,7 hPa 0,0 mm 1,0 km/h (0 Bft) W-SW 247 -2,9 C 0,0 km/h (0 Bft)
14.01.2016 21:10 -0,1 C -0,3 C 81 % 1007,7 hPa 0,0 mm 1,0 km/h (0 Bft) W-SW 247 -3,0 C 0,0 km/h (0 Bft)
14.01.2016 21:15 -0,1 C -0,3 C 81 % 1007,7 hPa 0,0 mm 1,0 km/h (0 Bft) W-NW 292 -3,0 C 2,6 km/h (1 Bft)
14.01.2016 21:20 -0,1 C -0,3 C 81 % 1007,7 hPa 0,0 mm 1,0 km/h (0 Bft) W-NW 292 -3,0 C 2,6 km/h (1 Bft)
14.01.2016 21:25 -0,1 C -0,4 C 81 % 1007,7 hPa 0,0 mm 0,8 km/h (0 Bft) W-NW 292 -3,0 C 0,0 km/h (0 Bft)
14.01.2016 21:30 -0,1 C -0,4 C 82 % 1007,7 hPa 0,0 mm 1,0 km/h (0 Bft) W-SW 247 -2,8 C 5,4 km/h (1 Bft)
14.01.2016 21:35 -0,1 C -0,4 C 82 % 1007,7 hPa 0,0 mm 1,6 km/h (1 Bft) W 270 -2,8 C 0,0 km/h (0 Bft)
14.01.2016 21:40 -0,1 C -0,3 C 82 % 1007,9 hPa 0,0 mm 1,3 km/h (1 Bft) W 270 -2,8 C 0,0 km/h (0 Bft)
14.01.2016 21:45 -0,1 C -0,3 C 83 % 1007,9 hPa 0,0 mm 1,0 km/h (0 Bft) NW 315 -2,6 C 2,6 km/h (1 Bft)
14.01.2016 21:50 -0,1 C -0,3 C 78 % 1007,9 hPa 0,0 mm 1,3 km/h (1 Bft) NW 315 -3,5 C 5,4 km/h (1 Bft)
14.01.2016 21:55 -0,1 C -0,3 C 79 % 1007,9 hPa 0,0 mm 0,8 km/h (0 Bft) W 270 -3,3 C 0,0 km/h (0 Bft)
14.01.2016 22:00 -0,1 C -0,3 C 79 % 1008,2 hPa 0,0 mm 0,3 km/h (0 Bft) NW 315 -3,3 C 0,0 km/h (0 Bft)
14.01.2016 22:05 -0,1 C -0,3 C 79 % 1008,2 hPa 0,0 mm 0,0 km/h (0 Bft) W-SW 247 -3,3 C 0,0 km/h (0 Bft)
14.01.2016 22:10 -0,1 C -0,2 C 79 % 1008,2 hPa 0,0 mm 0,5 km/h (0 Bft) N-NW 337 -3,3 C 3,6 km/h (1 Bft)
14.01.2016 22:15 -0,1 C -0,2 C 79 % 1008,2 hPa 0,0 mm 1,6 km/h (1 Bft) N-NW 337 -3,3 C 3,9 km/h (1 Bft)
14.01.2016 22:20 -0,1 C -0,2 C 79 % 1008,3 hPa 0,0 mm 3,6 km/h (1 Bft) NW 315 -3,3 C 8,3 km/h (2 Bft)
14.01.2016 22:25 0,0 C -0,4 C 80 % 1008,3 hPa 0,0 mm 4,9 km/h (1 Bft) NW 315 -3,0 C 5,7 km/h (1 Bft)
14.01.2016 22:30 0,0 C -0,4 C 86 % 1008,3 hPa 0,0 mm 4,9 km/h (1 Bft) W-SW 247 -2,1 C 21,2 km/h (4 Bft)
14.01.2016 22:35 -0,1 C -0,5 C 81 % 1008,3 hPa 0,0 mm 5,4 km/h (1 Bft) W 270 -3,0 C 22,3 km/h (4 Bft)
14.01.2016 22:40 -0,1 C -0,5 C 81 % 1008,6 hPa 0,0 mm 5,4 km/h (1 Bft) W-SW 247 -3,0 C 6,0 km/h (2 Bft)
14.01.2016 22:45 -0,1 C -0,5 C 81 % 1008,6 hPa 0,0 mm 5,2 km/h (1 Bft) W-SW 247 -3,0 C 5,4 km/h (1 Bft)
14.01.2016 22:50 -0,1 C -0,2 C 81 % 1008,6 hPa 0,0 mm 3,6 km/h (1 Bft) W-SW 247 -3,0 C 4,1 km/h (1 Bft)
14.01.2016 22:55 -0,1 C -0,3 C 81 % 1008,6 hPa 0,0 mm 3,9 km/h (1 Bft) W 270 -3,0 C 7,5 km/h (2 Bft)
14.01.2016 23:00 -0,1 C -0,4 C 81 % 1008,7 hPa 0,0 mm 4,4 km/h (1 Bft) W-SW 247 -3,0 C 7,8 km/h (2 Bft)
14.01.2016 23:05 -0,1 C -0,5 C 81 % 1008,7 hPa 0,0 mm 4,9 km/h (1 Bft) W-NW 292 -3,0 C 6,2 km/h (2 Bft)
14.01.2016 23:10 -0,1 C -0,4 C 81 % 1008,7 hPa 0,0 mm 4,4 km/h (1 Bft) NW 315 -3,0 C 2,6 km/h (1 Bft)
14.01.2016 23:15 -0,1 C -0,3 C 81 % 1008,7 hPa 0,0 mm 4,1 km/h (1 Bft) SW 225 -3,0 C 3,4 km/h (1 Bft)
14.01.2016 23:20 -0,1 C -0,4 C 82 % 1009,0 hPa 0,0 mm 4,7 km/h (1 Bft) O 90 -2,8 C 9,8 km/h (2 Bft)
14.01.2016 23:25 -0,1 C -0,3 C 82 % 1009,0 hPa 0,0 mm 4,1 km/h (1 Bft) SW 225 -2,8 C 6,7 km/h (2 Bft)
14.01.2016 23:30 -0,1 C -0,3 C 87 % 1009,0 hPa 0,0 mm 3,9 km/h (1 Bft) W-SW 247 -2,0 C 8,0 km/h (2 Bft)
14.01.2016 23:31 -0,1 C -0,5 C 87 % 1009,0 hPa 0,0 mm 4,7 km/h (1 Bft) NW 315 -2,0 C 5,2 km/h (1 Bft)
14.01.2016 23:34 -0,1 C -0,5 C 87 % 1009,0 hPa 0,0 mm 4,7 km/h (1 Bft) NW 315 -2,0 C 5,2 km/h (1 Bft)
14.01.2016 23:35 -0,1 C -0,5 C 87 % 1009,0 hPa 0,0 mm 4,7 km/h (1 Bft) NW 315 -2,0 C 5,2 km/h (1 Bft)
14.01.2016 23:40 -0,2 C -0,6 C 82 % 1009,1 hPa 0,0 mm 5,2 km/h (1 Bft) W 270 -2,9 C 6,0 km/h (2 Bft)
14.01.2016 23:45 -0,2 C -0,5 C 87 % 1009,1 hPa 0,0 mm 4,1 km/h (1 Bft) SO 135 -2,1 C 6,0 km/h (2 Bft)
14.01.2016 23:50 -0,2 C -0,5 C 87 % 1009,1 hPa 0,0 mm 4,1 km/h (1 Bft) W-SW 247 -2,1 C 0,0 km/h (0 Bft)
14.01.2016 23:55 -0,2 C -0,5 C 87 % 1009,1 hPa 0,0 mm 4,1 km/h (1 Bft) W 270 -2,1 C 6,2 km/h (2 Bft)
_ Min-Zeit 07:50 07:50 14:10 17:35 - 22:05 - - 07:50 23:50
Minimum _ -5,8 C -6,3 C 52 % 1006,4 hPa - 0,0 km/h (0 Bft) - - -10,4 C 0,0 km/h (0 Bft)
_ Max-Zeit 14:10 14:15 23:55 00:15 23:55 02:00 - - 23:35 22:35
Maximum _ 3,0 C 7,7 C 87 % 1017,8 hPa 0,0 mm 10,1 km/h
W-SW (2 Bft)
- - -2,0 C 22,3 km/h
W (4 Bft)
Durchschnitt _ -1,5 C -1,7 C 66 % 1010,9 hPa #0,0 mm 2,3 km/h (1 Bft) W-SW - -7,0 C 3,0 km/h (1 Bft)